Ogden, Utah
Current Conditions -  °F | °C
As of 2:53 AM on Monday 22 Dec 2014 (Local Time) from KOGD Reporting Station
Overcast Overcast  
Wind Chill: 36°   Ceiling: 4200
Heat Index: 40°   Visibility: 10mi
Dew Point: 35°   Wind: 6mph
Humidity: 83%   Direction: 200°SSW
Pressure: 30.02"   Gusts: NA
Location:  41.22°N, 111.97°W
Report Text: KOGD 220953Z AUTO 20005KT 10SM BKN042 OVC050 04/02 A3002 RMK AO2 SLP155 T00440017 TSNO
Loading
Personal Weather Stations






























Interactive Weather Map New forecast layout! Learn more

10-Day Weather Forecast

Advertisements
Track Severe Weather on mobile